createdAt,value
2023-04-07T00:00:12.718Z,7.00
2023-04-07T00:02:42.427Z,6.90
2023-04-07T00:05:12.441Z,6.90
2023-04-07T00:07:52.475Z,6.80
2023-04-07T00:10:26.237Z,6.90
2023-04-07T00:12:54.254Z,7.00
2023-04-07T00:15:22.249Z,7.10
2023-04-07T00:17:50.466Z,7.20
2023-04-07T00:20:18.551Z,7.20
2023-04-07T00:22:46.641Z,7.10
2023-04-07T00:25:14.628Z,7.00
2023-04-07T00:27:43.948Z,7.00
2023-04-07T00:30:12.295Z,7.10
2023-04-07T00:32:40.429Z,7.00
2023-04-07T00:35:09.233Z,7.10
2023-04-07T00:37:37.397Z,7.10
2023-04-07T00:40:06.122Z,7.20
2023-04-07T00:42:34.856Z,7.10
2023-04-07T00:45:04.291Z,7.30
2023-04-07T00:47:32.408Z,7.10
2023-04-07T00:50:00.497Z,6.90
2023-04-07T00:52:30.204Z,6.80
2023-04-07T00:54:58.636Z,6.90
2023-04-07T00:57:27.445Z,7.00
2023-04-07T00:59:57.417Z,7.20
2023-04-07T01:02:37.820Z,7.30
2023-04-07T01:05:13.920Z,7.30
2023-04-07T01:07:52.051Z,7.20
2023-04-07T01:10:28.754Z,7.00
2023-04-07T01:13:03.979Z,6.80
2023-04-07T01:15:32.842Z,6.80
2023-04-07T01:18:10.028Z,6.80
2023-04-07T01:20:39.095Z,6.80
2023-04-07T01:23:09.343Z,6.70
2023-04-07T01:26:03.927Z,6.70
2023-04-07T01:29:03.672Z,6.70
2023-04-07T01:31:35.119Z,6.60
2023-04-07T01:34:05.212Z,6.70
2023-04-07T01:36:34.809Z,6.70
2023-04-07T01:39:03.610Z,6.70
2023-04-07T01:41:32.387Z,6.50
2023-04-07T01:44:02.062Z,6.60
2023-04-07T01:46:30.431Z,6.60
2023-04-07T01:49:00.605Z,6.70
2023-04-07T01:51:31.636Z,6.80
2023-04-07T01:54:00.668Z,6.80
2023-04-07T01:56:28.748Z,6.90
2023-04-07T01:58:56.737Z,7.10
2023-04-07T02:01:24.800Z,7.00
2023-04-07T02:03:58.248Z,6.90
2023-04-07T02:06:34.218Z,6.80
2023-04-07T02:09:08.123Z,6.70
2023-04-07T02:11:38.624Z,6.70
2023-04-07T02:14:08.500Z,6.70
2023-04-07T02:16:37.676Z,6.60
2023-04-07T02:19:06.567Z,6.60
2023-04-07T02:21:37.158Z,6.50
2023-04-07T02:24:08.062Z,6.60
2023-04-07T02:26:36.742Z,6.50
2023-04-07T02:29:04.972Z,6.50
2023-04-07T02:31:33.031Z,6.40
2023-04-07T02:34:01.010Z,6.40
2023-04-07T02:36:29.066Z,6.50
2023-04-07T02:38:58.452Z,6.50
2023-04-07T02:41:26.414Z,6.50
2023-04-07T02:43:54.637Z,6.50
2023-04-07T02:46:22.877Z,6.70
2023-04-07T02:48:51.624Z,6.70
2023-04-07T02:51:19.620Z,6.90
2023-04-07T02:53:47.558Z,6.80
2023-04-07T02:56:17.240Z,6.60
2023-04-07T02:58:45.230Z,6.60
2023-04-07T03:01:13.264Z,6.50
2023-04-07T03:03:42.420Z,6.50
2023-04-07T03:06:10.540Z,6.40
2023-04-07T03:08:38.478Z,6.40
2023-04-07T03:11:06.461Z,6.50
2023-04-07T03:13:35.853Z,6.60
2023-04-07T03:16:03.801Z,6.60
2023-04-07T03:18:31.871Z,6.60
2023-04-07T03:20:59.852Z,6.60
2023-04-07T03:23:29.404Z,6.50
2023-04-07T03:25:58.307Z,6.40
2023-04-07T03:28:26.580Z,6.50
2023-04-07T03:30:55.924Z,6.50
2023-04-07T03:33:23.992Z,6.40
2023-04-07T03:35:51.956Z,6.50
2023-04-07T03:38:19.888Z,6.50
2023-04-07T03:40:47.902Z,6.50
2023-04-07T03:43:16.302Z,6.70
2023-04-07T03:45:44.483Z,6.60
2023-04-07T03:48:13.813Z,6.60
2023-04-07T03:50:42.148Z,6.70
2023-04-07T03:53:10.395Z,6.80
2023-04-07T03:55:38.929Z,6.80
2023-04-07T03:58:07.038Z,6.90
2023-04-07T04:00:35.473Z,6.90
2023-04-07T04:03:03.781Z,6.70
2023-04-07T04:05:41.917Z,6.60
2023-04-07T04:08:09.892Z,6.60
2023-04-07T04:10:37.858Z,6.70
2023-04-07T04:13:07.959Z,6.80
2023-04-07T04:15:35.999Z,6.90
2023-04-07T04:18:04.151Z,7.00
2023-04-07T04:20:33.489Z,7.00
2023-04-07T04:23:01.592Z,7.20
2023-04-07T04:25:29.806Z,7.20
2023-04-07T04:27:57.735Z,7.20
2023-04-07T04:30:25.788Z,7.30
2023-04-07T04:32:53.827Z,7.20
2023-04-07T04:35:21.933Z,7.10
2023-04-07T04:37:51.466Z,7.00
2023-04-07T04:40:19.645Z,6.70
2023-04-07T04:42:47.700Z,6.60
2023-04-07T04:45:15.645Z,6.60
2023-04-07T04:47:44.280Z,6.50
2023-04-07T04:50:12.972Z,6.40
2023-04-07T04:52:40.943Z,6.50
2023-04-07T04:55:12.277Z,6.50
2023-04-07T04:57:41.985Z,6.60
2023-04-07T05:00:11.050Z,6.60
2023-04-07T05:02:39.370Z,6.60
2023-04-07T05:05:08.604Z,6.50
2023-04-07T05:07:40.332Z,6.50
2023-04-07T05:10:10.679Z,6.40
2023-04-07T05:12:38.773Z,6.50
2023-04-07T05:15:08.059Z,6.50
2023-04-07T05:17:36.269Z,6.50
2023-04-07T05:20:05.376Z,6.40
2023-04-07T05:22:33.299Z,6.50
2023-04-07T05:25:01.229Z,6.60
2023-04-07T05:27:30.563Z,6.70
2023-04-07T05:29:59.082Z,6.90
2023-04-07T05:32:29.342Z,7.00
2023-04-07T05:34:57.564Z,7.10
2023-04-07T05:37:25.604Z,7.00
2023-04-07T05:39:53.716Z,7.00
2023-04-07T05:42:21.857Z,7.20
2023-04-07T05:44:51.696Z,7.20
2023-04-07T05:47:19.675Z,7.30
2023-04-07T05:49:47.836Z,7.30
2023-04-07T05:52:16.345Z,7.40
2023-04-07T05:54:44.392Z,7.50
2023-04-07T05:57:12.382Z,7.40
2023-04-07T05:59:40.538Z,7.40
2023-04-07T06:02:10.033Z,7.20
2023-04-07T06:04:39.520Z,6.90
2023-04-07T06:07:07.750Z,6.90
2023-04-07T06:09:35.846Z,7.00
2023-04-07T06:12:05.137Z,7.10
2023-04-07T06:14:33.179Z,7.10
2023-04-07T06:17:01.383Z,7.10
2023-04-07T06:19:30.956Z,7.20
2023-04-07T06:21:58.971Z,7.20
2023-04-07T06:24:27.198Z,7.10
2023-04-07T06:26:56.316Z,7.10
2023-04-07T06:29:24.285Z,7.30
2023-04-07T06:31:52.254Z,7.50
2023-04-07T06:34:20.323Z,7.60
2023-04-07T06:36:49.706Z,7.80
2023-04-07T06:39:17.742Z,7.90
2023-04-07T06:41:47.002Z,8.00
2023-04-07T06:44:14.955Z,8.10
2023-04-07T06:46:44.401Z,8.10
2023-04-07T06:49:12.539Z,8.30
2023-04-07T06:51:40.510Z,8.30
2023-04-07T06:54:13.020Z,8.30
2023-04-07T06:56:41.367Z,8.30
2023-04-07T06:59:09.547Z,8.20
2023-04-07T07:01:38.450Z,8.00
2023-04-07T07:04:07.142Z,7.90
2023-04-07T07:06:35.334Z,7.80
2023-04-07T07:09:04.101Z,7.90
2023-04-07T07:11:33.427Z,7.90
2023-04-07T07:14:01.460Z,7.70
2023-04-07T07:16:29.442Z,7.60
2023-04-07T07:18:57.400Z,7.50
2023-04-07T07:21:26.726Z,7.50
2023-04-07T07:23:54.721Z,7.50
2023-04-07T07:26:22.765Z,7.60
2023-04-07T07:28:52.089Z,7.60
2023-04-07T07:31:20.430Z,7.60
2023-04-07T07:33:50.022Z,7.60
2023-04-07T07:36:18.340Z,7.60
2023-04-07T07:38:46.370Z,7.70
2023-04-07T07:41:14.583Z,7.70
2023-04-07T07:43:42.997Z,7.70
2023-04-07T07:46:12.457Z,7.80
2023-04-07T07:48:40.446Z,7.80
2023-04-07T07:51:08.391Z,7.80
2023-04-07T07:53:36.375Z,7.90
2023-04-07T07:56:04.379Z,7.90
2023-04-07T07:58:32.522Z,8.00
2023-04-07T08:01:00.645Z,8.10
2023-04-07T08:03:30.145Z,8.10
2023-04-07T08:06:01.189Z,8.10
2023-04-07T08:08:29.129Z,8.20
2023-04-07T08:10:57.064Z,8.30
2023-04-07T08:13:25.090Z,8.30
2023-04-07T08:15:53.081Z,8.40
2023-04-07T08:18:21.076Z,8.50
2023-04-07T08:20:51.574Z,8.60
2023-04-07T08:23:19.622Z,8.70
2023-04-07T08:25:47.543Z,8.80
2023-04-07T08:28:16.014Z,8.90
2023-04-07T08:30:43.975Z,9.00
2023-04-07T08:33:12.103Z,9.10
2023-04-07T08:35:40.026Z,9.20
2023-04-07T08:38:09.817Z,9.30
2023-04-07T08:40:38.037Z,9.40
2023-04-07T08:43:10.028Z,9.40
2023-04-07T08:45:42.182Z,9.40
2023-04-07T08:48:17.665Z,9.50
2023-04-07T08:50:47.146Z,9.60
2023-04-07T08:53:24.523Z,9.60
2023-04-07T08:55:52.953Z,9.70
2023-04-07T08:58:21.313Z,9.70
2023-04-07T09:00:50.423Z,9.70
2023-04-07T09:03:19.116Z,9.80
2023-04-07T09:05:47.417Z,9.80
2023-04-07T09:08:16.744Z,9.90
2023-04-07T09:10:44.744Z,10.00
2023-04-07T09:13:12.701Z,10.10
2023-04-07T09:15:41.503Z,10.30
2023-04-07T09:18:09.665Z,10.40
2023-04-07T09:20:57.770Z,10.50
2023-04-07T09:23:31.579Z,10.60
2023-04-07T09:26:01.553Z,10.60
2023-04-07T09:28:43.504Z,10.70
2023-04-07T09:31:11.545Z,10.80
2023-04-07T09:33:39.773Z,10.80
2023-04-07T09:36:08.247Z,10.90
2023-04-07T09:38:40.074Z,10.90
2023-04-07T09:41:09.332Z,11.00
2023-04-07T09:43:39.122Z,11.00
2023-04-07T09:46:15.274Z,11.10
2023-04-07T09:48:44.841Z,11.10
2023-04-07T09:51:14.574Z,11.20
2023-04-07T09:53:45.366Z,11.30
2023-04-07T09:56:14.257Z,11.30
2023-04-07T09:58:42.313Z,11.40
2023-04-07T10:01:11.560Z,11.40
2023-04-07T10:03:40.592Z,11.50
2023-04-07T10:06:08.837Z,11.60
2023-04-07T10:08:38.706Z,11.60
2023-04-07T10:11:08.203Z,11.70
2023-04-07T10:13:38.470Z,11.80
2023-04-07T10:16:08.635Z,11.80
2023-04-07T10:18:38.122Z,11.80
2023-04-07T10:21:09.415Z,11.90
2023-04-07T10:23:50.161Z,12.00
2023-04-07T10:26:25.001Z,12.10
2023-04-07T10:28:58.337Z,12.20
2023-04-07T10:31:26.655Z,12.40
2023-04-07T10:33:56.572Z,12.40
2023-04-07T10:36:24.893Z,12.50
2023-04-07T10:39:23.630Z,12.50
2023-04-07T10:41:53.414Z,12.50
2023-04-07T10:44:46.914Z,12.60
2023-04-07T10:47:15.125Z,12.60
2023-04-07T10:50:19.601Z,12.70
2023-04-07T10:52:48.702Z,12.80
2023-04-07T10:55:37.687Z,12.90
2023-04-07T10:58:21.205Z,13.00
2023-04-07T11:01:22.769Z,13.10
2023-04-07T11:04:04.914Z,13.10
2023-04-07T11:06:32.994Z,13.20
2023-04-07T11:09:00.966Z,13.20
2023-04-07T11:11:42.538Z,13.30
2023-04-07T11:14:11.918Z,13.30
2023-04-07T11:16:45.703Z,13.40
2023-04-07T11:19:13.744Z,13.50
2023-04-07T11:21:41.787Z,13.60
2023-04-07T11:24:09.742Z,13.60
2023-04-07T11:26:43.903Z,13.80
2023-04-07T11:29:13.515Z,13.90
2023-04-07T11:31:41.686Z,14.00
2023-04-07T11:34:09.713Z,14.00
2023-04-07T11:36:41.031Z,14.10
2023-04-07T11:39:21.010Z,14.20
2023-04-07T11:41:50.664Z,14.30
2023-04-07T11:44:20.537Z,14.40
2023-04-07T11:46:55.680Z,14.50
2023-04-07T11:49:25.054Z,14.50
2023-04-07T11:52:00.111Z,14.60
2023-04-07T11:54:28.425Z,14.60
2023-04-07T11:56:56.526Z,14.60
2023-04-07T11:59:27.052Z,14.60
2023-04-07T12:01:57.702Z,14.70
2023-04-07T12:04:26.216Z,14.80
2023-04-07T12:06:54.412Z,14.80
2023-04-07T12:09:30.955Z,14.80
2023-04-07T12:11:59.543Z,14.80
2023-04-07T12:14:29.204Z,14.80
2023-04-07T12:16:58.306Z,14.80
2023-04-07T12:19:28.126Z,14.80
2023-04-07T12:21:56.557Z,14.90
2023-04-07T12:24:24.875Z,15.00
2023-04-07T12:26:53.045Z,15.00
2023-04-07T12:29:21.158Z,15.00
2023-04-07T12:31:51.360Z,15.00
2023-04-07T12:34:19.766Z,15.00
2023-04-07T12:36:48.298Z,15.00
2023-04-07T12:39:16.856Z,15.00
2023-04-07T12:41:45.887Z,15.00
2023-04-07T12:44:14.193Z,15.00
2023-04-07T12:46:43.240Z,15.00
2023-04-07T12:49:12.789Z,15.00
2023-04-07T12:51:41.350Z,15.00
2023-04-07T12:54:09.839Z,15.10
2023-04-07T12:56:37.825Z,15.10
2023-04-07T12:59:05.769Z,15.10
2023-04-07T13:01:35.551Z,15.10
2023-04-07T13:04:03.704Z,15.10
2023-04-07T13:06:33.695Z,15.10
2023-04-07T13:09:01.657Z,15.10
2023-04-07T13:11:29.702Z,15.10
2023-04-07T13:13:59.829Z,15.10
2023-04-07T13:16:29.304Z,15.10
2023-04-07T13:18:57.283Z,15.10
2023-04-07T13:23:57.731Z,15.10
2023-04-07T13:26:26.207Z,15.20
2023-04-07T13:28:54.190Z,15.20
2023-04-07T13:31:23.896Z,15.20
2023-04-07T13:33:51.972Z,15.20
2023-04-07T13:36:22.547Z,15.20
2023-04-07T13:38:51.247Z,15.20
2023-04-07T13:41:21.590Z,15.20
2023-04-07T13:43:49.694Z,15.30
2023-04-07T13:46:28.131Z,15.30
2023-04-07T13:48:56.807Z,15.30
2023-04-07T13:51:24.932Z,15.40
2023-04-07T13:53:52.962Z,15.40
2023-04-07T13:56:22.550Z,15.40
2023-04-07T13:58:50.607Z,15.40
2023-04-07T14:01:18.917Z,15.40
2023-04-07T14:03:48.015Z,15.50
2023-04-07T14:06:16.736Z,15.50
2023-04-07T14:08:44.672Z,15.50
2023-04-07T14:11:12.602Z,15.50
2023-04-07T14:13:41.982Z,15.60
2023-04-07T14:16:10.043Z,15.60
2023-04-07T14:18:38.482Z,15.60
2023-04-07T14:21:06.652Z,15.70
2023-04-07T14:23:37.700Z,15.70
2023-04-07T14:26:20.192Z,15.70
2023-04-07T14:28:49.587Z,15.70
2023-04-07T14:31:18.375Z,15.70
2023-04-07T14:33:46.947Z,15.80
2023-04-07T14:36:16.705Z,15.90
2023-04-07T14:38:45.050Z,16.00
2023-04-07T14:41:13.329Z,16.10
2023-04-07T14:43:41.440Z,16.20
2023-04-07T14:46:12.275Z,16.30
2023-04-07T14:48:40.313Z,16.40
2023-04-07T14:51:13.609Z,16.40
2023-04-07T14:53:43.579Z,16.40
2023-04-07T14:56:11.583Z,16.40
2023-04-07T14:58:40.742Z,16.40
2023-04-07T15:01:10.372Z,16.40
2023-04-07T15:03:39.039Z,16.30
2023-04-07T15:06:10.450Z,16.30
2023-04-07T15:08:38.490Z,16.20
2023-04-07T15:11:06.779Z,16.20
2023-04-07T15:13:35.272Z,16.10
2023-04-07T15:16:13.273Z,16.10
2023-04-07T15:18:42.894Z,16.00
2023-04-07T15:21:11.917Z,16.00
2023-04-07T15:23:41.698Z,16.00
2023-04-07T15:26:10.412Z,15.90
2023-04-07T15:28:38.742Z,15.90
2023-04-07T15:31:08.703Z,15.90
2023-04-07T15:33:39.030Z,15.80
2023-04-07T15:36:07.964Z,15.80
2023-04-07T15:38:36.246Z,15.80
2023-04-07T15:41:04.261Z,15.80
2023-04-07T15:43:32.236Z,15.70
2023-04-07T15:46:00.500Z,15.70
2023-04-07T15:48:28.625Z,15.60
2023-04-07T15:50:57.951Z,15.60
2023-04-07T15:53:26.210Z,15.60
2023-04-07T15:55:54.226Z,15.50
2023-04-07T15:58:22.182Z,15.50
2023-04-07T16:00:50.545Z,15.50
2023-04-07T16:03:18.811Z,15.50
2023-04-07T16:05:46.877Z,15.50
2023-04-07T16:08:16.223Z,15.40
2023-04-07T16:10:44.605Z,15.40
2023-04-07T16:13:12.691Z,15.40
2023-04-07T16:15:41.782Z,15.40
2023-04-07T16:18:12.056Z,15.30
2023-04-07T16:20:40.448Z,15.30
2023-04-07T16:23:08.392Z,15.30
2023-04-07T16:25:37.695Z,15.30
2023-04-07T16:28:05.666Z,15.30
2023-04-07T16:30:33.675Z,15.30
2023-04-07T16:33:01.760Z,15.30
2023-04-07T16:35:30.918Z,15.30
2023-04-07T16:38:03.659Z,15.30
2023-04-07T16:40:31.699Z,15.30
2023-04-07T16:43:01.122Z,15.30
2023-04-07T16:45:29.209Z,15.30
2023-04-07T16:47:57.195Z,15.30
2023-04-07T16:50:25.243Z,15.30
2023-04-07T16:52:54.802Z,15.20
2023-04-07T16:55:22.988Z,15.10
2023-04-07T16:57:51.163Z,15.00
2023-04-07T17:00:21.213Z,15.00
2023-04-07T17:02:49.389Z,14.90
2023-04-07T17:05:18.318Z,14.80
2023-04-07T17:07:46.336Z,14.70
2023-04-07T17:10:15.062Z,14.60
2023-04-07T17:12:43.084Z,14.60
2023-04-07T17:15:11.846Z,14.50
2023-04-07T17:17:41.217Z,14.50
2023-04-07T17:20:10.872Z,14.40
2023-04-07T17:22:38.972Z,14.40
2023-04-07T17:25:07.733Z,14.40
2023-04-07T17:27:35.993Z,14.40
2023-04-07T17:30:07.059Z,14.30
2023-04-07T17:32:35.117Z,14.30
2023-04-07T17:35:04.594Z,14.30
2023-04-07T17:37:32.779Z,14.20
2023-04-07T17:40:01.764Z,14.20
2023-04-07T17:42:29.772Z,14.20
2023-04-07T17:44:57.774Z,14.10
2023-04-07T17:47:25.857Z,14.10
2023-04-07T17:49:53.834Z,14.10
2023-04-07T17:52:23.219Z,14.00
2023-04-07T17:54:51.220Z,14.00
2023-04-07T17:57:20.168Z,13.90
2023-04-07T17:59:48.549Z,13.90
2023-04-07T18:02:16.662Z,13.90
2023-04-07T18:04:45.599Z,13.90
2023-04-07T18:07:14.968Z,13.90
2023-04-07T18:09:45.005Z,13.90
2023-04-07T18:12:13.444Z,13.80
2023-04-07T18:14:41.489Z,13.80
2023-04-07T18:17:09.425Z,13.70
2023-04-07T18:19:39.477Z,13.70
2023-04-07T18:22:09.763Z,13.60
2023-04-07T18:24:38.275Z,13.60
2023-04-07T18:27:07.566Z,13.50
2023-04-07T18:29:35.539Z,13.40
2023-04-07T18:32:03.598Z,13.40
2023-04-07T18:34:31.548Z,13.40
2023-04-07T18:36:59.492Z,13.40
2023-04-07T18:39:28.060Z,13.40
2023-04-07T18:41:57.479Z,13.30
2023-04-07T18:44:28.526Z,13.30
2023-04-07T18:46:59.143Z,13.30
2023-04-07T18:49:28.485Z,13.30
2023-04-07T18:51:56.716Z,13.30
2023-04-07T18:54:27.081Z,13.30
2023-04-07T18:56:55.108Z,13.30
2023-04-07T18:59:23.124Z,13.20
2023-04-07T19:01:52.547Z,13.20
2023-04-07T19:04:21.450Z,13.20
2023-04-07T19:06:52.099Z,13.20
2023-04-07T19:09:20.059Z,13.10
2023-04-07T19:11:48.198Z,13.10
2023-04-07T19:14:16.159Z,13.10
2023-04-07T19:16:44.740Z,13.00
2023-04-07T19:19:14.695Z,12.90
2023-04-07T19:21:42.666Z,12.90
2023-04-07T19:24:10.808Z,12.80
2023-04-07T19:26:39.039Z,12.80
2023-04-07T19:29:07.062Z,12.70
2023-04-07T19:31:35.370Z,12.70
2023-04-07T19:34:03.425Z,12.60
2023-04-07T19:36:32.865Z,12.50
2023-04-07T19:39:01.011Z,12.40
2023-04-07T19:41:29.345Z,12.30
2023-04-07T19:43:57.448Z,12.30
2023-04-07T19:46:25.506Z,12.20
2023-04-07T19:48:53.769Z,12.10
2023-04-07T19:51:22.016Z,12.10
2023-04-07T19:53:51.823Z,12.00
2023-04-07T19:56:19.834Z,11.90
2023-04-07T19:58:49.068Z,11.90
2023-04-07T20:01:17.980Z,11.90
2023-04-07T20:03:47.187Z,11.80
2023-04-07T20:06:15.500Z,11.90
2023-04-07T20:08:43.736Z,11.90
2023-04-07T20:11:13.584Z,11.90
2023-04-07T20:13:43.493Z,11.90
2023-04-07T20:16:11.882Z,11.90
2023-04-07T20:18:39.815Z,11.80
2023-04-07T20:21:07.821Z,11.80
2023-04-07T20:23:35.823Z,11.80
2023-04-07T20:26:04.276Z,11.80
2023-04-07T20:28:33.597Z,11.80
2023-04-07T20:31:01.733Z,11.70
2023-04-07T20:33:29.721Z,11.70
2023-04-07T20:35:57.728Z,11.70
2023-04-07T20:38:26.102Z,11.70
2023-04-07T20:40:54.172Z,11.70
2023-04-07T20:43:23.765Z,11.60
2023-04-07T20:45:53.360Z,11.60
2023-04-07T20:48:23.915Z,11.60
2023-04-07T20:50:52.854Z,11.60
2023-04-07T20:53:21.454Z,11.30
2023-04-07T20:55:49.462Z,11.40
2023-04-07T20:58:18.477Z,11.50
2023-04-07T21:00:46.605Z,11.50
2023-04-07T21:03:16.435Z,11.60
2023-04-07T21:05:45.821Z,11.50
2023-04-07T21:08:15.856Z,11.60
2023-04-07T21:10:43.884Z,11.50
2023-04-07T21:13:11.812Z,11.50
2023-04-07T21:15:42.217Z,11.50
2023-04-07T21:18:10.393Z,11.50
2023-04-07T21:20:39.776Z,11.50
2023-04-07T21:23:08.723Z,11.40
2023-04-07T21:25:38.960Z,11.40
2023-04-07T21:28:07.346Z,11.40
2023-04-07T21:30:35.615Z,11.40
2023-04-07T21:33:04.200Z,11.40
2023-04-07T21:35:32.232Z,11.40
2023-04-07T21:38:01.581Z,11.40
2023-04-07T21:40:29.526Z,11.30
2023-04-07T21:42:57.653Z,11.30
2023-04-07T21:45:25.720Z,11.20
2023-04-07T21:47:53.680Z,11.20
2023-04-07T21:50:21.803Z,11.10
2023-04-07T21:52:51.643Z,11.10
2023-04-07T21:55:21.364Z,11.10
2023-04-07T21:57:50.248Z,11.10
2023-04-07T22:00:18.441Z,11.10
2023-04-07T22:02:46.810Z,11.10
2023-04-07T22:05:15.952Z,11.20
2023-04-07T22:07:45.618Z,11.10
2023-04-07T22:10:14.077Z,11.10
2023-04-07T22:12:43.484Z,11.00
2023-04-07T22:15:12.893Z,11.00
2023-04-07T22:17:41.395Z,11.00
2023-04-07T22:20:11.663Z,11.00
2023-04-07T22:22:39.838Z,11.00
2023-04-07T22:25:08.425Z,11.00
2023-04-07T22:27:36.393Z,10.90
2023-04-07T22:30:09.853Z,10.90
2023-04-07T22:32:38.238Z,10.90
2023-04-07T22:35:06.908Z,10.90
2023-04-07T22:37:34.899Z,10.80
2023-04-07T22:40:02.955Z,10.80
2023-04-07T22:42:31.142Z,10.80
2023-04-07T22:44:59.082Z,10.80
2023-04-07T22:47:28.397Z,10.80
2023-04-07T22:49:56.498Z,10.80
2023-04-07T22:52:24.444Z,10.80
2023-04-07T22:54:52.435Z,10.80
2023-04-07T22:57:20.545Z,10.80
2023-04-07T22:59:48.514Z,10.80
2023-04-07T23:02:16.546Z,10.80
2023-04-07T23:04:45.927Z,10.80
2023-04-07T23:07:14.016Z,10.80
2023-04-07T23:09:41.969Z,10.80
2023-04-07T23:12:10.560Z,10.70
2023-04-07T23:14:38.514Z,10.70
2023-04-07T23:17:06.534Z,10.70
2023-04-07T23:19:34.501Z,10.60
2023-04-07T23:22:03.799Z,10.60
2023-04-07T23:24:31.852Z,10.60
2023-04-07T23:26:59.854Z,10.60
2023-04-07T23:29:28.234Z,10.60
2023-04-07T23:31:56.734Z,10.60
2023-04-07T23:34:24.813Z,10.50
2023-04-07T23:36:53.025Z,10.50
2023-04-07T23:39:22.346Z,10.50
2023-04-07T23:41:50.314Z,10.50
2023-04-07T23:44:18.965Z,10.60
2023-04-07T23:46:46.931Z,10.60
2023-04-07T23:49:14.899Z,10.60
2023-04-07T23:51:43.795Z,10.60
2023-04-07T23:54:12.389Z,10.60
2023-04-07T23:56:41.672Z,10.50
2023-04-07T23:59:09.630Z,10.50
